< < Back
Terminal Aerodrome Forecast


Current Version              Previous Versions:   1  2  3  4  5  6  7  8  9  

Terminal Aerodrome Forecast

583
FTUS44 KMRX 261120
TAFCHA
TAF
KCHA 261120Z 2612/2712 18003KT P6SM SCT100
     FM261500 19009KT P6SM SCT050 BKN100
     FM262000 23008KT P6SM VCTS BKN050CB
      TEMPO 2620/2624 3SM -TSRA OVC040CB
     FM270000 36007KT P6SM BKN035=

Latest METAR

708
SAUS80 KWBC 261300 RRB
MTRCHA
METAR KCHA 261253Z 20005KT 10SM SCT120 23/17 A3007 RMK AO2 SLP174
T02330172


USA.gov is the U.S. government's official web portal to all federal, state and local government web resources and services.